Time;durP1;ratioP1;P1;durP2;ratioP2;P2;SDS_P1;SDS_P2;PMS_P1;PMS_P2;Temp;Humidity;BMP_temperature;BMP_pressure;BME280_temperature;BME280_humidity;BME280_pressure;Samples;Min_cycle;Max_cycle;Signal;HPM_P1;HPM_P2
2022/06/05 00:01:19;;;;;;;14.97;13.47;;;19.60;95.40;;;;;;5086758;28;20513;-96
2022/06/05 00:03:52;;;;;;;15.03;13.63;;;19.60;95.40;;;;;;5089306;28;20170;-96
2022/06/05 00:06:31;;;;;;;15.03;13.53;;;19.60;95.30;;;;;;5087368;28;20205;-96
2022/06/05 00:09:09;;;;;;;15.60;14.07;;;19.60;94.90;;;;;;5087452;28;20185;-96
2022/06/05 00:11:47;;;;;;;15.57;14.17;;;19.60;95.70;;;;;;5083850;28;20172;-96
2022/06/05 00:14:14;;;;;;;15.23;13.83;;;19.60;95.10;;;;;;5081691;28;20173;-96
2022/06/05 00:16:40;;;;;;;15.17;13.67;;;19.60;94.40;;;;;;5083594;28;20177;-96
2022/06/05 00:19:08;;;;;;;16.00;14.37;;;19.60;93.00;;;;;;5088298;28;20193;-96
2022/06/05 00:21:35;;;;;;;13.93;12.63;;;19.60;93.50;;;;;;5088924;28;20175;-95
2022/06/05 00:24:00;;;;;;;13.03;11.93;;;19.60;93.00;;;;;;5090913;28;20206;-95
2022/06/05 00:26:55;;;;;;;12.77;11.47;;;19.60;92.10;;;;;;5093007;28;20211;-96
2022/06/05 00:29:46;;;;;;;12.57;11.47;;;19.50;88.90;;;;;;5080726;28;20179;-93
2022/06/05 00:32:40;;;;;;;12.90;11.70;;;19.60;86.70;;;;;;5096460;28;20236;-95
2022/06/05 00:35:10;;;;;;;12.53;11.33;;;19.60;85.80;;;;;;5088544;28;20223;-96
2022/06/05 00:37:50;;;;;;;13.83;12.53;;;19.70;83.70;;;;;;5086629;28;20182;-96
2022/06/05 00:43:30;;;;;;;13.77;12.57;;;19.80;82.80;;;;;;5082573;28;20164;-95
2022/06/05 00:45:57;;;;;;;13.90;12.53;;;19.70;85.30;;;;;;5083018;28;20212;-92
2022/06/05 00:48:25;;;;;;;14.93;13.43;;;19.70;85.10;;;;;;5091437;28;20170;-92
2022/06/05 00:50:51;;;;;;;13.80;12.50;;;19.80;87.60;;;;;;5097521;28;20170;-92
2022/06/05 00:53:16;;;;;;;15.20;13.73;;;19.80;88.90;;;;;;5089817;28;20169;-89
2022/06/05 00:56:01;;;;;;;14.07;12.83;;;19.60;90.80;;;;;;5077642;28;20180;-89
2022/06/05 00:58:42;;;;;;;14.47;13.07;;;19.50;91.80;;;;;;5077064;28;20248;-92
2022/06/05 01:01:09;;;;;;;14.90;13.47;;;19.50;92.50;;;;;;5080927;28;20529;-90
2022/06/05 01:03:36;;;;;;;15.40;14.00;;;19.40;93.30;;;;;;5083522;28;20171;-96
2022/06/05 01:06:03;;;;;;;15.50;14.10;;;19.30;93.70;;;;;;5082978;28;20212;-96
2022/06/05 01:08:29;;;;;;;13.90;12.70;;;19.40;92.90;;;;;;5078342;28;20183;-89
2022/06/05 01:11:18;;;;;;;14.43;13.13;;;19.30;92.90;;;;;;5082608;28;20186;-91
2022/06/05 01:14:13;;;;;;;14.93;13.53;;;19.30;92.60;;;;;;5084900;28;20207;-96
2022/06/05 01:16:56;;;;;;;14.83;13.43;;;19.40;91.90;;;;;;5101725;28;20191;-95
2022/06/05 01:19:43;;;;;;;15.40;13.87;;;19.30;92.40;;;;;;5100795;28;20172;-95
2022/06/05 01:22:27;;;;;;;15.47;14.00;;;19.20;93.70;;;;;;5095619;28;20172;-90
2022/06/05 01:25:32;;;;;;;15.50;14.03;;;19.10;94.10;;;;;;5079826;28;20660;-91
2022/06/05 01:28:08;;;;;;;15.10;13.77;;;19.00;94.40;;;;;;5081076;28;20183;-96
2022/06/05 01:30:45;;;;;;;15.60;14.20;;;19.00;95.20;;;;;;5071171;28;20202;-96
2022/06/05 01:33:22;;;;;;;15.13;13.63;;;19.00;95.00;;;;;;5094264;28;20176;-95
2022/06/05 01:36:05;;;;;;;15.67;14.17;;;19.00;93.70;;;;;;5101360;28;20200;-91
2022/06/05 01:38:57;;;;;;;14.80;13.50;;;18.90;92.80;;;;;;5099612;28;20176;-94
2022/06/05 01:41:46;;;;;;;15.67;14.17;;;19.00;93.70;;;;;;5087950;28;20180;-90
2022/06/05 01:44:22;;;;;;;15.37;13.97;;;19.00;93.40;;;;;;5081731;28;20173;-88
2022/06/05 01:46:50;;;;;;;14.60;13.20;;;18.90;92.40;;;;;;5084989;28;20281;-91
2022/06/05 01:49:35;;;;;;;14.83;13.63;;;18.80;92.80;;;;;;5083308;28;20182;-87
2022/06/05 01:52:07;;;;;;;14.87;13.60;;;18.70;93.40;;;;;;5084024;28;20210;-93
2022/06/05 01:54:44;;;;;;;16.77;13.73;;;18.70;94.40;;;;;;5089399;28;20160;-91
2022/06/05 01:57:12;;;;;;;16.43;14.83;;;18.60;94.30;;;;;;5097519;28;20163;-89
2022/06/05 01:59:46;;;;;;;16.43;14.83;;;18.50;95.10;;;;;;5080745;28;20181;-88
2022/06/05 02:02:18;;;;;;;15.10;13.70;;;18.50;95.20;;;;;;5090324;28;20266;-87
2022/06/05 02:05:11;;;;;;;16.27;14.60;;;18.40;95.60;;;;;;5087608;28;20172;-89
2022/06/05 02:07:44;;;;;;;16.67;15.13;;;18.50;96.50;;;;;;5087415;28;20211;-91
2022/06/05 02:13:32;;;;;;;16.10;14.63;;;18.50;97.00;;;;;;5087297;28;20180;-92
2022/06/05 02:15:59;;;;;;;15.80;14.30;;;18.50;96.50;;;;;;5078681;28;20180;-90
2022/06/05 02:18:24;;;;;;;16.23;14.67;;;18.40;95.90;;;;;;5078613;28;20231;-90
2022/06/05 02:20:51;;;;;;;16.33;14.73;;;18.30;96.10;;;;;;5080789;28;20224;-93
2022/06/05 02:23:24;;;;;;;15.97;14.37;;;18.30;95.90;;;;;;5091183;28;20196;-91
2022/06/05 02:25:52;;;;;;;16.17;14.63;;;18.30;96.20;;;;;;5080948;28;20216;-89
2022/06/05 02:28:18;;;;;;;16.43;14.93;;;18.30;95.90;;;;;;5080277;28;20264;-88
2022/06/05 02:30:57;;;;;;;16.67;15.03;;;18.30;96.90;;;;;;5081960;28;20201;-88
2022/06/05 02:33:34;;;;;;;16.43;15.03;;;18.30;96.40;;;;;;5086083;28;20196;-96
2022/06/05 02:36:29;;;;;;;16.90;15.50;;;18.30;96.50;;;;;;5099153;28;20183;-88
2022/06/05 02:39:18;;;;;;;16.80;15.20;;;18.40;96.60;;;;;;5092504;28;20188;-87
2022/06/05 02:41:52;;;;;;;16.33;14.83;;;18.30;97.00;;;;;;5099361;28;20227;-91
2022/06/05 02:44:43;;;;;;;17.53;15.87;;;18.40;98.00;;;;;;5099072;28;20170;-96
2022/06/05 02:47:52;;;;;;;17.33;15.73;;;18.30;97.80;;;;;;5094906;28;20237;-96
2022/06/05 02:53:57;;;;;;;17.07;15.47;;;18.40;97.10;;;;;;5091469;28;20171;-96
2022/06/05 02:56:26;;;;;;;18.13;16.33;;;18.40;97.20;;;;;;5092346;28;20187;-96
2022/06/05 02:59:13;;;;;;;18.00;16.30;;;18.30;97.10;;;;;;5092784;28;20169;-96
2022/06/05 03:04:42;;;;;;;19.33;17.37;;;18.40;97.50;;;;;;5113384;28;20182;-96
2022/06/05 03:07:14;;;;;;;18.57;16.77;;;18.30;97.80;;;;;;5096087;28;20282;-95
2022/06/05 03:09:41;;;;;;;18.33;16.67;;;18.30;97.90;;;;;;5099554;28;20180;-90
2022/06/05 03:12:11;;;;;;;18.77;16.87;;;18.30;97.60;;;;;;5099789;28;20160;-88
2022/06/05 03:14:36;;;;;;;19.00;17.20;;;18.20;98.20;;;;;;5099455;28;20186;-94
2022/06/05 03:17:02;;;;;;;19.33;17.43;;;18.20;98.30;;;;;;5099224;28;20159;-92
2022/06/05 03:19:32;;;;;;;19.37;17.70;;;18.30;98.30;;;;;;5095921;28;20184;-89
2022/06/05 03:22:04;;;;;;;17.80;16.20;;;18.20;98.70;;;;;;5092944;28;20188;-89
2022/06/05 03:24:44;;;;;;;19.33;17.57;;;18.10;98.70;;;;;;5099194;28;20217;-92
2022/06/05 03:27:52;;;;;;;18.63;16.93;;;18.20;98.50;;;;;;5096173;28;20229;-89
2022/06/05 03:30:20;;;;;;;18.60;16.83;;;18.20;99.10;;;;;;5091939;28;20226;-96
2022/06/05 03:32:48;;;;;;;18.60;16.80;;;18.10;99.30;;;;;;5091125;28;20156;-92
2022/06/05 03:35:16;;;;;;;18.50;16.97;;;18.10;99.70;;;;;;5092149;28;20211;-94
2022/06/05 03:37:41;;;;;;;19.57;17.47;;;18.10;99.90;;;;;;5096806;28;20160;-90
2022/06/05 03:40:16;;;;;;;19.37;17.37;;;18.20;99.90;;;;;;5097418;28;20206;-93
2022/06/05 03:42:45;;;;;;;19.33;17.57;;;18.10;99.90;;;;;;5097077;28;20180;-91
2022/06/05 03:45:32;;;;;;;18.17;16.67;;;18.20;99.90;;;;;;5086831;28;20161;-96
2022/06/05 03:48:01;;;;;;;19.20;17.27;;;18.30;99.90;;;;;;5088183;28;20185;-96
2022/06/05 03:51:19;;;;;;;19.43;17.73;;;18.40;99.20;;;;;;5073894;28;20267;-96
2022/06/05 03:53:49;;;;;;;17.90;16.10;;;18.40;98.50;;;;;;5093522;28;20172;-95
2022/06/05 03:56:22;;;;;;;18.33;16.70;;;18.40;97.80;;;;;;5093147;28;20205;-96
2022/06/05 03:58:51;;;;;;;17.43;15.93;;;18.30;98.00;;;;;;5077638;28;20636;-96
2022/06/05 04:01:19;;;;;;;18.13;16.43;;;18.30;98.30;;;;;;5097702;28;20235;-89
2022/06/05 04:03:52;;;;;;;18.40;16.67;;;18.20;98.20;;;;;;5098557;28;20154;-90
2022/06/05 04:06:27;;;;;;;16.83;15.37;;;18.20;99.00;;;;;;5098249;28;20234;-92
2022/06/05 04:08:57;;;;;;;16.93;15.43;;;18.20;99.20;;;;;;5084754;28;20192;-95
2022/06/05 04:11:29;;;;;;;17.97;15.87;;;18.20;99.00;;;;;;5093362;28;20235;-88
2022/06/05 04:13:58;;;;;;;17.73;16.13;;;18.20;98.60;;;;;;5096201;28;20191;-95
2022/06/05 04:16:39;;;;;;;17.73;16.23;;;18.20;98.50;;;;;;5072821;28;20176;-96
2022/06/05 04:19:08;;;;;;;16.70;15.17;;;18.20;98.30;;;;;;5084271;28;20172;-96
2022/06/05 04:21:37;;;;;;;17.43;15.63;;;18.30;98.20;;;;;;5093576;28;20179;-95
2022/06/05 04:24:04;;;;;;;17.30;15.60;;;18.30;97.90;;;;;;5098248;28;20211;-92
2022/06/05 04:26:33;;;;;;;17.17;15.57;;;18.30;97.80;;;;;;5097428;28;20270;-94
2022/06/05 04:29:03;;;;;;;17.50;15.80;;;18.30;97.40;;;;;;5081538;28;20222;-96
2022/06/05 04:31:35;;;;;;;16.53;15.03;;;18.30;96.80;;;;;;5079069;28;20180;-96
2022/06/05 04:34:11;;;;;;;17.23;15.67;;;18.40;97.30;;;;;;5077683;28;20168;-95
2022/06/05 04:36:40;;;;;;;16.23;14.80;;;18.30;97.10;;;;;;5062878;28;20173;-94
2022/06/05 04:39:10;;;;;;;15.53;14.20;;;18.40;97.10;;;;;;5080107;28;20206;-96
2022/06/05 04:41:38;;;;;;;15.90;14.50;;;18.30;96.50;;;;;;5080780;28;20164;-96
2022/06/05 04:44:08;;;;;;;16.43;14.93;;;18.40;95.40;;;;;;5063896;28;20647;-96
2022/06/05 04:46:34;;;;;;;16.17;14.57;;;18.50;94.80;;;;;;5064431;28;20204;-96
2022/06/05 04:49:02;;;;;;;16.00;14.50;;;18.50;94.90;;;;;;5080286;28;20211;-96
2022/06/05 04:51:28;;;;;;;15.07;13.73;;;18.50;93.50;;;;;;5064014;28;20181;-95
2022/06/05 04:53:56;;;;;;;15.70;14.10;;;18.50;92.30;;;;;;5089541;28;20221;-94
2022/06/05 04:56:25;;;;;;;16.20;14.80;;;18.50;91.80;;;;;;5085754;28;20180;-96
2022/06/05 04:58:51;;;;;;;15.57;14.17;;;18.60;91.10;;;;;;5087694;28;20259;-96
2022/06/05 05:01:28;;;;;;;14.07;12.87;;;18.60;90.40;;;;;;5083001;28;20178;-96
2022/06/05 05:03:59;;;;;;;14.93;13.47;;;18.50;87.00;;;;;;5089090;28;20177;-92
2022/06/05 05:06:33;;;;;;;15.50;13.90;;;18.60;87.40;;;;;;5085030;28;20203;-96
2022/06/05 05:09:01;;;;;;;14.43;13.03;;;18.50;85.60;;;;;;5066137;28;20177;-95
2022/06/05 05:11:29;;;;;;;15.37;14.07;;;18.50;86.90;;;;;;5066594;28;20201;-96
2022/06/05 05:13:55;;;;;;;15.40;14.00;;;18.50;87.00;;;;;;5079983;28;20185;-91
2022/06/05 05:16:22;;;;;;;15.27;13.97;;;18.50;88.30;;;;;;5076352;28;20261;-90
2022/06/05 05:18:58;;;;;;;16.83;14.33;;;18.50;88.80;;;;;;5077160;28;20191;-91
2022/06/05 05:21:26;;;;;;;15.60;13.30;;;18.40;89.60;;;;;;5048946;28;20188;-89
2022/06/05 05:23:55;;;;;;;15.43;14.03;;;18.40;89.10;;;;;;5079821;28;20201;-90
2022/06/05 05:26:30;;;;;;;15.87;14.47;;;18.40;90.70;;;;;;5083809;28;20211;-90
2022/06/05 05:28:57;;;;;;;16.03;14.43;;;18.50;91.40;;;;;;5079610;28;20176;-91
2022/06/05 05:31:29;;;;;;;15.40;13.93;;;18.50;91.00;;;;;;5076925;28;20194;-90
2022/06/05 05:33:56;;;;;;;15.50;14.10;;;18.50;91.30;;;;;;5068350;28;20175;-90
2022/06/05 05:36:24;;;;;;;16.43;14.87;;;18.50;90.60;;;;;;5063799;28;20604;-90
2022/06/05 05:44:26;;;;;;;14.67;13.37;;;18.60;90.70;;;;;;5083847;28;20185;-90
2022/06/05 05:46:51;;;;;;;16.57;14.77;;;18.80;88.30;;;;;;5080292;28;20239;-90
2022/06/05 05:49:26;;;;;;;16.27;14.77;;;18.80;88.30;;;;;;5080236;28;20182;-92
2022/06/05 05:52:29;;;;;;;16.47;14.87;;;18.90;87.40;;;;;;5069733;28;20235;-89
2022/06/05 05:55:05;;;;;;;16.23;14.73;;;18.90;85.80;;;;;;5083650;28;20161;-89
2022/06/05 05:57:39;;;;;;;16.33;14.77;;;19.00;85.80;;;;;;5086079;28;20508;-91
2022/06/05 06:00:09;;;;;;;16.70;15.07;;;19.10;83.50;;;;;;5088129;28;20657;-91
2022/06/05 06:02:39;;;;;;;15.73;14.23;;;19.20;80.00;;;;;;5089398;28;20188;-91
2022/06/05 06:05:07;;;;;;;17.20;15.60;;;19.20;78.20;;;;;;5100132;28;20200;-94
2022/06/05 06:07:36;;;;;;;15.47;14.07;;;19.30;75.80;;;;;;5087527;28;20264;-90
2022/06/05 06:10:07;;;;;;;16.97;15.37;;;19.30;78.00;;;;;;5079409;28;20170;-90
2022/06/05 06:12:33;;;;;;;16.10;14.60;;;19.30;77.30;;;;;;5076405;28;20636;-90
2022/06/05 06:15:02;;;;;;;17.20;15.37;;;19.40;77.30;;;;;;5076138;28;20164;-90
2022/06/05 06:17:28;;;;;;;16.73;14.20;;;19.50;71.60;;;;;;5077592;28;20162;-90
2022/06/05 06:19:54;;;;;;;15.57;14.17;;;19.60;71.50;;;;;;5077683;28;20190;-90
2022/06/05 06:22:21;;;;;;;14.87;13.60;;;19.60;72.50;;;;;;5083953;28;20175;-90
2022/06/05 06:24:47;;;;;;;15.43;13.93;;;19.80;70.30;;;;;;5098309;28;20207;-91
2022/06/05 06:27:13;;;;;;;15.57;14.07;;;19.90;66.80;;;;;;5100021;28;20212;-88
2022/06/05 06:29:39;;;;;;;14.40;13.10;;;20.10;61.70;;;;;;5095809;28;20192;-90
2022/06/05 06:32:06;;;;;;;15.40;14.00;;;20.20;55.70;;;;;;5082551;28;20190;-96
2022/06/05 06:34:35;;;;;;;15.17;13.87;;;20.30;53.50;;;;;;5081488;28;20179;-96
2022/06/05 06:37:02;;;;;;;14.70;13.30;;;20.40;58.60;;;;;;5080288;28;20174;-93
2022/06/05 06:39:28;;;;;;;14.37;13.17;;;20.50;59.90;;;;;;5078442;28;20525;-96
2022/06/05 06:41:54;;;;;;;13.37;12.23;;;20.60;54.10;;;;;;5080867;28;20171;-96
2022/06/05 06:44:20;;;;;;;12.87;11.57;;;20.80;49.00;;;;;;5097825;28;20161;-96
2022/06/05 06:46:46;;;;;;;13.63;12.33;;;21.10;39.30;;;;;;5099771;28;20354;-90
2022/06/05 06:49:12;;;;;;;13.37;12.27;;;21.30;27.00;;;;;;5098797;28;20181;-93
2022/06/05 06:51:41;;;;;;;13.03;11.73;;;21.50;20.60;;;;;;5091273;28;20178;-96
2022/06/05 06:54:10;;;;;;;13.43;12.23;;;21.50;17.60;;;;;;5083547;28;20165;-96
2022/06/05 06:56:36;;;;;;;13.30;12.10;;;21.40;13.60;;;;;;5078666;28;20179;-96
2022/06/05 06:59:03;;;;;;;12.87;11.77;;;21.40;13.00;;;;;;5077932;28;20761;-93
2022/06/05 07:01:29;;;;;;;12.87;11.77;;;21.50;8.80;;;;;;5079880;28;20186;-93
2022/06/05 07:03:55;;;;;;;13.60;11.90;;;21.30;13.10;;;;;;5074454;28;20162;-88
2022/06/05 07:06:21;;;;;;;13.37;12.27;;;21.30;16.90;;;;;;5098598;28;20214;-89
2022/06/05 07:08:49;;;;;;;13.43;12.23;;;21.40;7.80;;;;;;5082111;28;20165;-85
2022/06/05 07:11:22;;;;;;;14.17;12.83;;;21.30;10.20;;;;;;5098902;28;20156;-87
2022/06/05 07:13:56;;;;;;;14.10;12.90;;;21.50;7.70;;;;;;5099178;28;20231;-90
2022/06/05 07:16:22;;;;;;;13.93;12.73;;;21.70;1.00;;;;;;5093772;28;20204;-94
2022/06/05 07:18:48;;;;;;;14.10;12.70;;;21.70;1.00;;;;;;5083214;28;20187;-92
2022/06/05 07:21:18;;;;;;;14.93;13.73;;;21.40;6.70;;;;;;5094511;28;20182;-92
2022/06/05 07:23:44;;;;;;;15.20;13.83;;;21.50;8.40;;;;;;5066889;28;20202;-93
2022/06/05 07:26:15;;;;;;;16.23;14.63;;;21.50;10.50;;;;;;5085790;28;20190;-95
2022/06/05 07:28:41;;;;;;;15.73;14.30;;;21.30;16.20;;;;;;5075850;28;20177;-90
2022/06/05 07:31:14;;;;;;;15.43;14.00;;;21.40;17.30;;;;;;5064300;28;20208;-90
2022/06/05 07:33:43;;;;;;;15.97;14.47;;;21.50;17.30;;;;;;5089402;28;20181;-93
2022/06/05 07:36:17;;;;;;;15.77;14.27;;;21.50;15.00;;;;;;5086657;28;20179;-92
2022/06/05 07:38:44;;;;;;;16.63;15.10;;;21.50;15.60;;;;;;5081130;28;20179;-90
2022/06/05 07:41:23;;;;;;;15.93;14.53;;;21.40;20.40;;;;;;5087836;28;20224;-88
2022/06/05 07:43:49;;;;;;;16.53;14.93;;;21.20;29.40;;;;;;5095780;28;20256;-89
2022/06/05 07:46:17;;;;;;;16.70;15.23;;;21.20;32.60;;;;;;5096553;28;20194;-91
2022/06/05 07:48:43;;;;;;;16.57;15.07;;;20.90;42.50;;;;;;5090716;28;20237;-90
2022/06/05 07:56:43;;;;;;;18.43;16.10;;;20.80;51.20;;;;;;5083899;28;20183;-94
2022/06/05 07:59:16;;;;;;;16.77;15.27;;;20.80;46.50;;;;;;5084359;28;20169;-92
2022/06/05 08:01:42;;;;;;;16.87;15.47;;;20.70;49.00;;;;;;5083631;28;20176;-94
2022/06/05 08:04:09;;;;;;;17.57;15.97;;;20.70;50.00;;;;;;5080472;28;20202;-90
2022/06/05 08:06:35;;;;;;;17.77;16.17;;;20.80;47.30;;;;;;5077686;28;20257;-92
2022/06/05 08:09:03;;;;;;;17.90;16.30;;;20.80;47.20;;;;;;5078085;28;20568;-93
2022/06/05 08:11:31;;;;;;;19.30;17.60;;;20.70;49.00;;;;;;5080898;28;20192;-92
2022/06/05 08:13:57;;;;;;;20.37;18.57;;;20.60;49.50;;;;;;5078333;28;20274;-92
2022/06/05 08:16:23;;;;;;;17.27;15.73;;;20.60;49.90;;;;;;5087580;28;20643;-91
2022/06/05 08:18:55;;;;;;;19.70;17.90;;;20.80;44.70;;;;;;5081230;28;20183;-91
2022/06/05 08:21:22;;;;;;;19.03;17.43;;;20.60;45.40;;;;;;5079800;28;20200;-91
2022/06/05 08:23:48;;;;;;;19.43;17.63;;;20.60;50.20;;;;;;5076074;28;20203;-91
2022/06/05 08:26:15;;;;;;;19.53;17.87;;;20.50;51.50;;;;;;5075048;28;20259;-92
2022/06/05 08:28:44;;;;;;;20.47;18.73;;;20.50;51.80;;;;;;5078861;28;20204;-93
2022/06/05 08:31:10;;;;;;;21.33;19.30;;;20.60;49.70;;;;;;5076111;28;20599;-93
2022/06/05 08:33:36;;;;;;;21.37;19.40;;;20.50;52.80;;;;;;5076134;28;20176;-93
2022/06/05 08:36:02;;;;;;;20.00;18.00;;;20.40;55.00;;;;;;5075268;28;20725;-92
2022/06/05 08:41:27;;;;;;;20.50;18.70;;;20.20;59.00;;;;;;5081372;28;20253;-94
2022/06/05 08:44:05;;;;;;;20.67;18.87;;;20.10;64.90;;;;;;5064764;28;20257;-94
2022/06/05 08:46:37;;;;;;;20.53;18.80;;;20.30;59.30;;;;;;5059142;28;20555;-93
2022/06/05 08:49:14;;;;;;;21.13;19.33;;;20.30;58.90;;;;;;5078758;28;20178;-91
2022/06/05 08:52:05;;;;;;;21.60;19.50;;;20.40;55.70;;;;;;5092468;28;20169;-90
2022/06/05 08:54:54;;;;;;;21.93;19.93;;;20.30;54.80;;;;;;5096069;28;20201;-92
2022/06/05 08:57:46;;;;;;;22.47;20.17;;;20.10;60.30;;;;;;5085759;28;20210;-90
2022/06/05 09:00:20;;;;;;;22.47;20.23;;;20.10;61.20;;;;;;5077161;28;20171;-92
2022/06/05 09:02:58;;;;;;;22.93;20.80;;;20.00;60.90;;;;;;5060589;28;20167;-92
2022/06/05 09:05:30;;;;;;;23.37;21.17;;;20.00;61.50;;;;;;5063642;28;20208;-92
2022/06/05 09:08:04;;;;;;;22.30;20.33;;;20.00;64.60;;;;;;5060461;28;20186;-92
2022/06/05 09:10:39;;;;;;;21.60;19.70;;;19.90;61.60;;;;;;5063049;28;20177;-88
2022/06/05 09:13:44;;;;;;;23.37;21.10;;;19.90;59.70;;;;;;5077015;28;20238;-89
2022/06/05 09:16:14;;;;;;;23.93;21.67;;;19.80;67.80;;;;;;5075475;28;20181;-92
2022/06/05 09:18:47;;;;;;;23.57;21.50;;;19.80;65.90;;;;;;5072927;28;20209;-94
2022/06/05 09:22:01;;;;;;;24.23;22.13;;;19.80;69.90;;;;;;5074111;28;20257;-93
2022/06/05 09:24:38;;;;;;;24.77;22.47;;;19.80;67.80;;;;;;5079131;28;20262;-91
2022/06/05 09:27:30;;;;;;;23.87;21.67;;;19.70;69.90;;;;;;5081077;28;20207;-94
2022/06/05 09:30:09;;;;;;;24.27;21.93;;;20.00;70.10;;;;;;5079121;28;20225;-89
2022/06/05 09:33:00;;;;;;;24.23;22.03;;;20.00;71.00;;;;;;5080792;28;20190;-92
2022/06/05 09:35:48;;;;;;;25.17;22.97;;;19.90;70.00;;;;;;5078576;28;20156;-95
2022/06/05 09:38:54;;;;;;;25.10;22.87;;;19.80;74.70;;;;;;5079479;28;20160;-94
2022/06/05 09:41:45;;;;;;;25.13;22.93;;;19.80;71.60;;;;;;5074060;28;20247;-92
2022/06/05 09:44:19;;;;;;;25.13;22.77;;;19.70;74.30;;;;;;5065408;28;20199;-93
2022/06/05 09:46:55;;;;;;;26.87;24.57;;;19.70;75.80;;;;;;5064523;28;20202;-95
2022/06/05 09:49:36;;;;;;;25.70;23.43;;;19.70;78.90;;;;;;5069713;28;20162;-92
2022/06/05 09:52:22;;;;;;;25.77;23.57;;;19.70;76.30;;;;;;5080586;28;20243;-91
2022/06/05 09:55:18;;;;;;;25.90;23.70;;;19.70;77.30;;;;;;5074490;28;20194;-95
2022/06/05 09:58:25;;;;;;;26.07;23.77;;;19.80;78.40;;;;;;5067654;28;20193;-91
2022/06/05 10:00:59;;;;;;;25.57;23.37;;;19.80;77.10;;;;;;5062609;28;20165;-91
2022/06/05 10:03:29;;;;;;;25.47;23.33;;;19.90;77.20;;;;;;5059434;28;20182;-95
2022/06/05 10:06:29;;;;;;;26.87;24.37;;;20.00;75.20;;;;;;5059730;28;20757;-93
2022/06/05 10:09:13;;;;;;;25.33;23.10;;;20.00;76.40;;;;;;5060202;28;20180;-91
2022/06/05 10:11:59;;;;;;;26.53;24.13;;;20.30;72.70;;;;;;5059146;28;20171;-95
2022/06/05 10:14:38;;;;;;;32.50;29.47;;;20.40;70.30;;;;;;5059153;28;20195;-95
2022/06/05 10:17:31;;;;;;;30.00;27.30;;;20.40;67.50;;;;;;5064655;28;20175;-94
2022/06/05 10:20:17;;;;;;;29.10;26.47;;;20.60;66.30;;;;;;5064341;28;20168;-93
2022/06/05 10:22:49;;;;;;;27.63;25.33;;;20.60;64.30;;;;;;5066380;28;20188;-96
2022/06/05 10:25:45;;;;;;;27.60;25.20;;;20.70;60.80;;;;;;5065227;28;20176;-95
2022/06/05 10:28:24;;;;;;;28.17;25.67;;;20.90;55.30;;;;;;5064622;28;20540;-95
2022/06/05 10:31:09;;;;;;;28.07;25.57;;;20.60;60.40;;;;;;5059359;28;20196;-94
2022/06/05 10:34:18;;;;;;;28.83;26.27;;;20.60;62.40;;;;;;5068209;28;20264;-95
2022/06/05 10:36:56;;;;;;;28.53;26.03;;;20.40;69.10;;;;;;5061495;28;20173;-92
2022/06/05 10:39:28;;;;;;;29.63;26.97;;;20.40;79.40;;;;;;5070290;28;20206;-95
2022/06/05 10:41:56;;;;;;;30.30;27.70;;;20.40;78.20;;;;;;5062092;28;20181;-94
2022/06/05 10:44:42;;;;;;;30.87;28.23;;;20.10;83.80;;;;;;5060166;28;20627;-92
2022/06/05 10:47:17;;;;;;;31.87;28.90;;;20.00;90.10;;;;;;5062213;28;20249;-96
2022/06/05 10:50:26;;;;;;;31.50;28.60;;;20.10;91.90;;;;;;5078862;28;20238;-88
2022/06/05 10:53:21;;;;;;;32.10;29.00;;;20.10;91.90;;;;;;5093843;28;20183;-91
2022/06/05 10:56:12;;;;;;;33.27;30.37;;;20.10;93.20;;;;;;5091773;28;20190;-93
2022/06/05 10:59:17;;;;;;;33.33;30.43;;;20.00;94.40;;;;;;5084265;28;20171;-93
2022/06/05 11:02:04;;;;;;;32.93;30.00;;;20.10;93.90;;;;;;5088907;28;20276;-95
2022/06/05 11:04:39;;;;;;;34.47;31.37;;;20.00;93.90;;;;;;5080969;28;20545;-93
2022/06/05 11:08:00;;;;;;;36.00;32.80;;;20.00;95.00;;;;;;5070223;28;20786;-93
2022/06/05 11:13:47;;;;;;;40.53;36.27;;;19.80;97.60;;;;;;5071335;28;20193;-94
2022/06/05 11:16:47;;;;;;;40.57;36.77;;;19.70;99.60;;;;;;5065310;28;20187;-91
2022/06/05 11:19:42;;;;;;;42.00;38.20;;;19.60;99.90;;;;;;5076493;28;20182;-92
2022/06/05 11:22:14;;;;;;;43.93;39.90;;;19.50;99.90;;;;;;5082669;28;20206;-89
2022/06/05 11:25:18;;;;;;;45.17;40.83;;;19.40;99.90;;;;;;5070266;28;20614;-92
2022/06/05 11:28:22;;;;;;;43.83;39.80;;;19.20;99.90;;;;;;5071126;28;20192;-93
2022/06/05 11:31:25;;;;;;;44.07;39.97;;;19.10;99.90;;;;;;5069872;28;20359;-93
2022/06/05 11:33:55;;;;;;;48.87;43.97;;;19.00;99.90;;;;;;5061532;28;20168;-93
2022/06/05 11:36:28;;;;;;;44.97;40.87;;;18.90;99.90;;;;;;5058107;28;20188;-92
2022/06/05 11:39:10;;;;;;;47.67;43.47;;;18.80;99.90;;;;;;5068493;28;20173;-91
2022/06/05 11:42:18;;;;;;;48.67;44.17;;;18.70;99.90;;;;;;5087095;28;20180;-94
2022/06/05 11:44:54;;;;;;;45.03;41.03;;;18.70;99.90;;;;;;5095675;28;20207;-91
2022/06/05 11:47:46;;;;;;;41.47;37.77;;;18.70;99.90;;;;;;5094385;28;20195;-92
2022/06/05 11:50:35;;;;;;;41.07;37.40;;;18.60;99.90;;;;;;5094988;28;20202;-90
2022/06/05 11:53:22;;;;;;;42.80;39.00;;;18.70;99.90;;;;;;5084792;28;20178;-93
2022/06/05 11:56:13;;;;;;;41.77;38.17;;;18.70;99.90;;;;;;5084531;28;20176;-94
2022/06/05 11:58:46;;;;;;;43.00;39.20;;;18.70;99.90;;;;;;5080859;28;20187;-93
2022/06/05 12:01:18;;;;;;;44.80;40.90;;;18.80;99.90;;;;;;5083614;28;20176;-94
2022/06/05 12:03:53;;;;;;;41.10;37.27;;;18.80;99.90;;;;;;5076820;28;20370;-92
2022/06/05 12:06:28;;;;;;;42.77;38.57;;;18.90;99.90;;;;;;5074736;28;20204;-93
2022/06/05 12:09:01;;;;;;;43.40;39.60;;;18.80;99.90;;;;;;5072242;28;20196;-91
2022/06/05 12:12:03;;;;;;;44.70;40.47;;;18.80;99.90;;;;;;5064669;28;20650;-91
2022/06/05 12:14:51;;;;;;;42.10;38.20;;;18.80;99.90;;;;;;5077090;28;20194;-92
2022/06/05 12:17:34;;;;;;;43.90;39.67;;;18.90;99.90;;;;;;5077255;28;20203;-90
2022/06/05 12:20:17;;;;;;;44.50;40.40;;;19.00;99.90;;;;;;5076576;28;20161;-91
2022/06/05 12:23:11;;;;;;;46.43;42.07;;;19.10;99.90;;;;;;5075873;28;20177;-90
2022/06/05 12:25:41;;;;;;;45.23;41.13;;;19.10;99.90;;;;;;5092655;28;20169;-93
2022/06/05 12:28:24;;;;;;;43.77;39.77;;;19.20;99.90;;;;;;5080218;28;20195;-91
2022/06/05 12:31:03;;;;;;;43.03;39.03;;;19.30;99.90;;;;;;5064838;28;20200;-90
2022/06/05 12:33:52;;;;;;;40.67;36.90;;;19.20;99.90;;;;;;5063299;28;20187;-87
2022/06/05 12:36:39;;;;;;;37.97;34.47;;;19.30;99.90;;;;;;5075389;28;20193;-90
2022/06/05 12:39:33;;;;;;;29.60;26.67;;;19.30;99.90;;;;;;5069434;28;20193;-90
2022/06/05 12:42:21;;;;;;;29.63;26.93;;;19.20;99.90;;;;;;5057419;28;20176;-90
2022/06/05 12:45:14;;;;;;;24.57;22.27;;;19.40;99.90;;;;;;5055914;28;20653;-90
2022/06/05 12:48:21;;;;;;;23.40;21.30;;;19.20;99.90;;;;;;5056174;28;20209;-90
2022/06/05 12:50:59;;;;;;;23.53;21.43;;;19.20;99.90;;;;;;5060459;28;20173;-89
2022/06/05 12:53:31;;;;;;;25.27;22.93;;;19.20;99.90;;;;;;5067970;28;20644;-88
2022/06/05 12:56:22;;;;;;;23.43;21.23;;;19.10;99.90;;;;;;5061485;28;20203;-92
2022/06/05 12:58:59;;;;;;;22.10;20.03;;;19.20;99.90;;;;;;5060111;28;20173;-89
2022/06/05 13:01:56;;;;;;;25.93;23.43;;;19.20;99.90;;;;;;5061877;28;20203;-89
2022/06/05 13:04:36;;;;;;;23.33;21.23;;;19.20;99.90;;;;;;5061634;28;20574;-89
2022/06/05 13:07:13;;;;;;;24.50;22.13;;;19.20;99.90;;;;;;5061878;28;20331;-89
2022/06/05 13:09:51;;;;;;;23.03;20.83;;;19.20;99.90;;;;;;5073239;28;20174;-89
2022/06/05 13:12:50;;;;;;;22.07;19.87;;;19.10;99.90;;;;;;5077522;28;20198;-90
2022/06/05 13:15:30;;;;;;;18.80;17.00;;;18.90;99.90;;;;;;5089481;28;20186;-90
2022/06/05 13:18:03;;;;;;;18.40;16.60;;;19.00;99.90;;;;;;5093235;28;20169;-89
2022/06/05 13:21:08;;;;;;;19.83;17.93;;;19.00;99.90;;;;;;5094066;28;20620;-89
2022/06/05 13:23:41;;;;;;;19.73;17.83;;;19.20;99.90;;;;;;5068208;28;20192;-90
2022/06/05 13:26:26;;;;;;;20.17;18.17;;;19.30;99.90;;;;;;5071230;28;20209;-90
2022/06/05 13:29:07;;;;;;;23.40;21.20;;;19.20;99.90;;;;;;5066087;28;20165;-92
2022/06/05 13:31:55;;;;;;;22.40;20.40;;;19.10;99.90;;;;;;5059084;28;20197;-90
2022/06/05 13:34:53;;;;;;;23.00;20.80;;;19.00;99.90;;;;;;5063911;28;20174;-93
2022/06/05 13:37:33;;;;;;;24.20;21.97;;;18.90;99.90;;;;;;5061838;28;20206;-92
2022/06/05 13:40:25;;;;;;;22.90;20.70;;;18.90;99.90;;;;;;5085785;28;20633;-94
2022/06/05 13:42:53;;;;;;;21.87;19.87;;;19.30;99.90;;;;;;5091081;28;20181;-95
2022/06/05 13:45:55;;;;;;;22.67;20.47;;;19.30;99.90;;;;;;5089125;28;20243;-95
2022/06/05 13:48:30;;;;;;;22.27;20.17;;;19.40;99.90;;;;;;5080619;28;20195;-94